createdAt,value
2018-11-29T00:00:33.012Z,35.93
2018-11-29T00:03:01.384Z,35.50
2018-11-29T00:05:29.760Z,36.00
2018-11-29T00:07:58.182Z,33.50
2018-11-29T00:10:27.284Z,35.13
2018-11-29T00:12:55.658Z,36.57
2018-11-29T00:15:24.777Z,32.30
2018-11-29T00:17:53.155Z,37.13
2018-11-29T00:20:21.522Z,33.67
2018-11-29T00:22:49.942Z,32.70
2018-11-29T00:25:18.300Z,30.80
2018-11-29T00:27:46.644Z,33.27
2018-11-29T00:30:15.800Z,33.93
2018-11-29T00:32:44.192Z,33.90
2018-11-29T00:35:12.568Z,33.00
2018-11-29T00:37:40.930Z,34.40
2018-11-29T00:40:09.286Z,30.53
2018-11-29T00:42:37.664Z,33.93
2018-11-29T00:45:06.044Z,33.43
2018-11-29T00:47:34.382Z,33.93
2018-11-29T00:50:02.737Z,32.80
2018-11-29T00:52:31.106Z,35.83
2018-11-29T00:54:59.464Z,32.93
2018-11-29T00:57:27.948Z,31.03
2018-11-29T00:59:56.296Z,32.70
2018-11-29T01:02:24.662Z,33.73
2018-11-29T01:04:53.039Z,35.00
2018-11-29T01:07:22.144Z,32.47
2018-11-29T01:09:51.384Z,32.23
2018-11-29T01:12:19.724Z,32.30
2018-11-29T01:14:48.088Z,30.57
2018-11-29T01:17:16.467Z,31.93
2018-11-29T01:19:44.872Z,31.43
2018-11-29T01:22:13.250Z,30.90
2018-11-29T01:24:41.608Z,33.37
2018-11-29T01:27:09.944Z,29.83
2018-11-29T01:29:38.281Z,32.37
2018-11-29T01:32:06.636Z,33.17
2018-11-29T01:34:34.990Z,31.17
2018-11-29T01:37:03.343Z,30.50
2018-11-29T01:39:31.878Z,33.93
2018-11-29T01:42:00.222Z,30.90
2018-11-29T01:44:28.614Z,31.17
2018-11-29T01:46:57.000Z,28.43
2018-11-29T01:49:25.358Z,31.23
2018-11-29T01:51:53.703Z,31.07
2018-11-29T01:54:22.857Z,32.80
2018-11-29T01:56:51.215Z,32.23
2018-11-29T01:59:19.600Z,28.30
2018-11-29T02:01:48.001Z,33.50
2018-11-29T02:04:16.355Z,33.03
2018-11-29T02:06:44.745Z,31.27
2018-11-29T02:09:13.209Z,31.57
2018-11-29T02:11:41.585Z,30.17
2018-11-29T02:14:09.969Z,31.37
2018-11-29T02:16:38.333Z,28.70
2018-11-29T02:19:06.661Z,34.60
2018-11-29T02:21:36.879Z,30.37
2018-11-29T02:24:05.247Z,34.00
2018-11-29T02:26:33.582Z,33.30
2018-11-29T02:29:01.950Z,33.10
2018-11-29T02:31:30.381Z,32.07
2018-11-29T02:33:58.833Z,32.57
2018-11-29T02:36:27.243Z,37.00
2018-11-29T02:38:55.607Z,31.90
2018-11-29T02:41:23.973Z,32.77
2018-11-29T02:43:52.535Z,30.37
2018-11-29T02:46:20.953Z,33.43
2018-11-29T02:48:49.297Z,34.50
2018-11-29T02:51:17.676Z,32.60
2018-11-29T02:53:46.259Z,32.70
2018-11-29T02:56:14.613Z,37.30
2018-11-29T02:58:42.986Z,36.80
2018-11-29T03:01:11.335Z,35.20
2018-11-29T03:03:39.683Z,34.73
2018-11-29T03:06:08.049Z,34.40
2018-11-29T03:08:36.495Z,34.60
2018-11-29T03:11:04.900Z,31.73
2018-11-29T03:13:33.251Z,33.60
2018-11-29T03:16:01.595Z,34.27
2018-11-29T03:18:30.009Z,33.90
2018-11-29T03:20:58.425Z,32.07
2018-11-29T03:23:26.773Z,33.40
2018-11-29T03:25:55.138Z,40.30
2018-11-29T03:28:23.605Z,33.47
2018-11-29T03:30:51.974Z,37.17
2018-11-29T03:33:20.337Z,33.90
2018-11-29T03:35:48.716Z,36.07
2018-11-29T03:38:17.099Z,33.83
2018-11-29T03:40:45.489Z,36.70
2018-11-29T03:43:13.832Z,36.43
2018-11-29T03:45:42.969Z,33.67
2018-11-29T03:48:11.400Z,36.03
2018-11-29T03:50:39.783Z,34.40
2018-11-29T03:53:08.928Z,39.20
2018-11-29T03:55:37.307Z,40.50
2018-11-29T03:58:05.715Z,41.00
2018-11-29T04:00:34.059Z,38.17
2018-11-29T04:03:02.393Z,38.17
2018-11-29T04:05:30.769Z,34.43
2018-11-29T04:07:59.125Z,38.03
2018-11-29T04:10:27.468Z,39.63
2018-11-29T04:12:55.809Z,39.33
2018-11-29T04:15:24.220Z,38.43
2018-11-29T04:17:52.631Z,36.60
2018-11-29T04:20:20.947Z,35.73
2018-11-29T04:22:50.081Z,37.40
2018-11-29T04:25:18.453Z,38.17
2018-11-29T04:27:47.595Z,40.17
2018-11-29T04:30:15.960Z,41.40
2018-11-29T04:32:44.334Z,40.60
2018-11-29T04:35:12.735Z,36.83
2018-11-29T04:37:41.131Z,41.17
2018-11-29T04:40:10.306Z,39.60
2018-11-29T04:42:38.791Z,40.93
2018-11-29T04:45:07.201Z,38.50
2018-11-29T04:47:35.548Z,36.70
2018-11-29T04:50:03.974Z,38.60
2018-11-29T04:52:33.130Z,41.33
2018-11-29T04:55:01.614Z,40.07
2018-11-29T04:57:29.958Z,39.07
2018-11-29T04:59:58.335Z,38.47
2018-11-29T05:02:26.692Z,37.53
2018-11-29T05:04:55.022Z,37.70
2018-11-29T05:07:24.287Z,42.40
2018-11-29T05:09:52.801Z,41.70
2018-11-29T05:12:21.157Z,38.30
2018-11-29T05:14:49.524Z,40.07
2018-11-29T05:17:19.616Z,40.90
2018-11-29T05:19:47.972Z,38.80
2018-11-29T05:22:16.353Z,39.00
2018-11-29T05:24:44.738Z,37.83
2018-11-29T05:27:13.083Z,39.37
2018-11-29T05:29:41.422Z,40.43
2018-11-29T05:32:09.799Z,37.57
2018-11-29T05:34:38.159Z,37.70
2018-11-29T05:37:06.513Z,38.73
2018-11-29T05:39:34.873Z,40.87
2018-11-29T05:42:03.217Z,38.20
2018-11-29T05:44:32.351Z,40.20
2018-11-29T05:47:00.813Z,39.83
2018-11-29T05:49:29.350Z,38.57
2018-11-29T05:51:57.695Z,35.50
2018-11-29T05:54:26.045Z,38.10
2018-11-29T05:56:54.396Z,36.07
2018-11-29T05:59:22.732Z,40.00
2018-11-29T06:01:51.105Z,34.50
2018-11-29T06:04:19.459Z,39.87
2018-11-29T06:06:48.687Z,36.17
2018-11-29T06:09:17.037Z,40.30
2018-11-29T06:11:46.133Z,37.40
2018-11-29T06:14:15.253Z,36.57
2018-11-29T06:16:43.631Z,38.60
2018-11-29T06:19:11.988Z,35.63
2018-11-29T06:21:41.110Z,39.13
2018-11-29T06:24:13.573Z,39.27
2018-11-29T06:26:37.891Z,39.03
2018-11-29T06:29:06.391Z,35.37
2018-11-29T06:31:34.743Z,36.33
2018-11-29T06:34:03.121Z,35.43
2018-11-29T06:36:31.501Z,39.23
2018-11-29T06:38:59.860Z,38.30
2018-11-29T06:41:28.251Z,33.40
2018-11-29T06:43:56.597Z,34.40
2018-11-29T06:46:25.806Z,37.03
2018-11-29T06:48:54.104Z,38.47
2018-11-29T06:51:22.480Z,37.93
2018-11-29T06:53:50.828Z,36.03
2018-11-29T06:56:20.033Z,36.67
2018-11-29T06:58:49.198Z,38.10
2018-11-29T07:01:17.633Z,32.27
2018-11-29T07:03:46.018Z,35.87
2018-11-29T07:06:14.356Z,36.60
2018-11-29T07:08:43.482Z,34.47
2018-11-29T07:11:11.835Z,37.97
2018-11-29T07:13:41.091Z,34.57
2018-11-29T07:16:09.484Z,35.77
2018-11-29T07:18:37.970Z,36.97
2018-11-29T07:24:26.775Z,38.20
2018-11-29T07:26:56.031Z,35.40
2018-11-29T07:29:24.499Z,33.00
2018-11-29T07:31:52.841Z,38.37
2018-11-29T07:34:22.088Z,37.80
2018-11-29T07:36:50.559Z,36.87
2018-11-29T07:39:18.925Z,36.37
2018-11-29T07:41:47.295Z,37.10
2018-11-29T07:44:15.691Z,34.27
2018-11-29T07:46:44.051Z,37.33
2018-11-29T07:49:13.188Z,34.97
2018-11-29T07:51:41.529Z,33.47
2018-11-29T07:54:09.903Z,35.83
2018-11-29T07:56:39.048Z,39.93
2018-11-29T07:59:07.551Z,34.13
2018-11-29T08:01:35.907Z,32.63
2018-11-29T08:04:04.246Z,34.87
2018-11-29T08:06:32.629Z,32.57
2018-11-29T08:09:00.995Z,33.03
2018-11-29T08:11:30.131Z,34.10
2018-11-29T08:13:58.508Z,32.90
2018-11-29T08:16:26.943Z,33.87
2018-11-29T08:18:55.375Z,31.63
2018-11-29T08:21:23.757Z,34.17
2018-11-29T08:23:52.173Z,31.33
2018-11-29T08:26:20.505Z,34.27
2018-11-29T08:28:48.888Z,32.60
2018-11-29T08:31:17.289Z,31.47
2018-11-29T08:33:45.663Z,34.80
2018-11-29T08:36:14.004Z,33.17
2018-11-29T08:38:42.393Z,32.50
2018-11-29T08:41:10.769Z,33.10
2018-11-29T08:43:39.139Z,31.43
2018-11-29T08:46:07.503Z,33.47
2018-11-29T08:48:36.639Z,30.80
2018-11-29T08:51:05.315Z,35.87
2018-11-29T08:53:33.669Z,36.00
2018-11-29T08:56:02.778Z,30.70
2018-11-29T08:58:31.157Z,29.73
2018-11-29T09:00:59.529Z,33.53
2018-11-29T09:03:27.870Z,29.43
2018-11-29T09:05:56.316Z,31.73
2018-11-29T09:08:24.671Z,30.63
2018-11-29T09:10:53.063Z,32.50
2018-11-29T09:13:25.192Z,29.87
2018-11-29T09:15:53.645Z,31.80
2018-11-29T09:18:21.977Z,32.47
2018-11-29T09:20:50.325Z,34.53
2018-11-29T09:23:18.887Z,33.10
2018-11-29T09:25:47.345Z,32.13
2018-11-29T09:28:15.700Z,33.73
2018-11-29T09:30:44.081Z,30.27
2018-11-29T09:33:12.397Z,32.40
2018-11-29T09:35:40.767Z,32.73
2018-11-29T09:38:09.149Z,31.47
2018-11-29T09:40:37.485Z,33.33
2018-11-29T09:43:06.623Z,33.23
2018-11-29T09:45:34.933Z,32.30
2018-11-29T09:48:03.330Z,30.70
2018-11-29T09:50:32.480Z,32.37
2018-11-29T09:53:00.835Z,32.40
2018-11-29T09:55:29.189Z,28.77
2018-11-29T09:57:58.329Z,32.33
2018-11-29T10:00:28.238Z,28.70
2018-11-29T10:02:55.194Z,30.03
2018-11-29T10:05:23.612Z,29.43
2018-11-29T10:07:52.172Z,30.87
2018-11-29T10:10:21.508Z,28.93
2018-11-29T10:12:50.189Z,30.80
2018-11-29T10:15:18.552Z,27.60
2018-11-29T10:17:46.898Z,31.97
2018-11-29T10:20:15.373Z,42.23
2018-11-29T10:22:43.709Z,37.80
2018-11-29T10:25:12.089Z,32.53
2018-11-29T10:27:40.435Z,30.77
2018-11-29T10:30:08.774Z,31.80
2018-11-29T10:32:37.153Z,35.00
2018-11-29T10:35:05.505Z,33.70
2018-11-29T10:37:34.648Z,30.60
2018-11-29T10:40:03.001Z,34.33
2018-11-29T10:42:31.354Z,35.20
2018-11-29T10:44:59.799Z,30.83
2018-11-29T10:47:28.266Z,32.23
2018-11-29T10:49:56.629Z,31.50
2018-11-29T10:52:25.053Z,30.53
2018-11-29T10:54:53.422Z,35.70
2018-11-29T10:57:21.875Z,33.63
2018-11-29T10:59:50.225Z,31.90
2018-11-29T11:02:19.369Z,28.80
2018-11-29T11:04:47.747Z,29.43
2018-11-29T11:07:16.069Z,27.50
2018-11-29T11:09:44.509Z,26.70
2018-11-29T11:12:12.873Z,26.17
2018-11-29T11:14:41.229Z,27.07
2018-11-29T11:17:10.350Z,25.90
2018-11-29T11:19:38.701Z,25.87
2018-11-29T11:22:07.794Z,26.43
2018-11-29T11:24:36.918Z,28.20
2018-11-29T11:27:05.282Z,25.17
2018-11-29T11:29:33.694Z,24.43
2018-11-29T11:32:02.049Z,26.60
2018-11-29T11:34:30.408Z,28.40
2018-11-29T11:36:59.552Z,25.70
2018-11-29T11:39:27.936Z,27.00
2018-11-29T11:41:56.270Z,25.13
2018-11-29T11:44:24.670Z,26.23
2018-11-29T11:46:53.058Z,25.50
2018-11-29T11:49:21.437Z,22.97
2018-11-29T11:51:49.810Z,23.73
2018-11-29T11:54:18.150Z,21.90
2018-11-29T11:56:47.306Z,24.20
2018-11-29T11:59:15.655Z,24.83
2018-11-29T12:01:44.057Z,25.30
2018-11-29T12:04:12.399Z,22.63
2018-11-29T12:06:40.759Z,25.27
2018-11-29T12:09:09.856Z,24.20
2018-11-29T12:11:39.036Z,22.50
2018-11-29T12:14:07.389Z,25.13
2018-11-29T12:16:35.738Z,25.00
2018-11-29T12:19:04.088Z,25.47
2018-11-29T12:21:32.466Z,21.80
2018-11-29T12:24:00.797Z,22.03
2018-11-29T12:26:29.152Z,21.83
2018-11-29T12:28:57.484Z,23.97
2018-11-29T12:31:25.916Z,22.37
2018-11-29T12:33:55.131Z,21.03
2018-11-29T12:36:23.482Z,21.77
2018-11-29T12:38:52.634Z,21.93
2018-11-29T12:41:21.016Z,18.27
2018-11-29T12:43:49.360Z,20.17
2018-11-29T12:46:17.730Z,18.87
2018-11-29T12:48:46.096Z,18.90
2018-11-29T12:51:14.514Z,19.90
2018-11-29T12:53:42.956Z,18.83
2018-11-29T12:56:11.326Z,19.47
2018-11-29T12:58:40.594Z,17.57
2018-11-29T13:01:08.932Z,17.53
2018-11-29T13:03:37.656Z,22.07
2018-11-29T13:06:06.021Z,18.33
2018-11-29T13:08:34.378Z,24.17
2018-11-29T13:11:02.771Z,18.60
2018-11-29T13:13:31.283Z,16.83
2018-11-29T13:47:45.806Z,7.17
2018-11-29T13:50:18.550Z,5.87
2018-11-29T13:52:48.006Z,7.03
2018-11-29T13:55:17.718Z,6.70
2018-11-29T13:57:48.239Z,5.53
2018-11-29T14:00:21.270Z,5.60
2018-11-29T14:02:51.891Z,5.10
2018-11-29T14:05:21.221Z,4.47
2018-11-29T14:18:11.209Z,19.10
2018-11-29T14:20:40.919Z,12.47
2018-11-29T14:23:10.345Z,11.77
2018-11-29T14:25:40.079Z,12.43
2018-11-29T14:28:09.838Z,12.90
2018-11-29T14:30:39.240Z,14.00
2018-11-29T14:33:11.930Z,14.80
2018-11-29T14:35:38.079Z,14.77
2018-11-29T14:38:07.623Z,17.93
2018-11-29T14:40:37.635Z,17.30
2018-11-29T14:43:07.697Z,14.83
2018-11-29T14:45:37.058Z,17.63
2018-11-29T14:48:06.697Z,17.33
2018-11-29T14:50:43.724Z,16.03
2018-11-29T14:53:13.263Z,15.27
2018-11-29T14:55:42.972Z,17.20
2018-11-29T14:58:13.801Z,15.50
2018-11-29T15:00:46.107Z,14.93
2018-11-29T15:03:20.465Z,15.63
2018-11-29T15:05:53.251Z,15.93
2018-11-29T15:08:23.061Z,15.60
2018-11-29T15:10:52.730Z,16.77
2018-11-29T15:13:22.124Z,15.03
2018-11-29T15:15:51.598Z,13.13
2018-11-29T15:18:21.419Z,18.57
2018-11-29T15:20:51.602Z,14.87
2018-11-29T15:23:21.966Z,16.23
2018-11-29T15:25:51.698Z,17.27
2018-11-29T15:28:21.249Z,14.43
2018-11-29T15:30:50.788Z,18.20
2018-11-29T15:33:20.222Z,16.70
2018-11-29T15:35:50.057Z,16.97
2018-11-29T15:38:22.552Z,15.63
2018-11-29T15:40:49.411Z,16.43
2018-11-29T15:43:21.487Z,16.63
2018-11-29T15:45:50.799Z,13.80
2018-11-29T15:48:20.073Z,13.93
2018-11-29T15:50:47.535Z,12.87
2018-11-29T15:53:17.491Z,13.40
2018-11-29T15:55:47.050Z,14.37
2018-11-29T15:58:16.673Z,16.50
2018-11-29T16:00:46.526Z,16.10
2018-11-29T16:03:16.030Z,14.63
2018-11-29T16:05:48.640Z,13.27
2018-11-29T16:08:18.589Z,12.67
2018-11-29T16:10:48.311Z,13.63
2018-11-29T16:13:21.348Z,10.57
2018-11-29T16:15:54.386Z,12.60
2018-11-29T16:18:24.277Z,13.03
2018-11-29T16:20:53.805Z,11.20
2018-11-29T16:23:23.247Z,13.37
2018-11-29T16:25:52.740Z,14.67
2018-11-29T16:28:24.121Z,13.53
2018-11-29T16:30:57.435Z,10.83
2018-11-29T16:33:34.302Z,13.87
2018-11-29T16:36:04.131Z,12.23
2018-11-29T16:38:35.982Z,10.97
2018-11-29T16:41:03.028Z,11.57
2018-11-29T16:43:32.584Z,13.23
2018-11-29T16:46:02.546Z,12.17
2018-11-29T16:48:32.165Z,12.73
2018-11-29T16:51:01.674Z,11.93
2018-11-29T16:53:31.324Z,12.23
2018-11-29T16:56:00.922Z,11.27
2018-11-29T16:58:31.214Z,14.37
2018-11-29T17:01:00.748Z,12.27
2018-11-29T17:03:31.488Z,15.93
2018-11-29T17:06:00.919Z,12.37
2018-11-29T17:08:30.331Z,12.67
2018-11-29T17:10:59.819Z,14.17
2018-11-29T17:13:29.944Z,15.97
2018-11-29T17:15:59.629Z,13.50
2018-11-29T17:18:29.245Z,11.93
2018-11-29T17:20:59.231Z,12.57
2018-11-29T17:23:28.859Z,12.83
2018-11-29T17:25:58.787Z,13.00
2018-11-29T17:28:28.218Z,18.73
2018-11-29T17:30:57.812Z,11.43
2018-11-29T17:33:30.012Z,13.17
2018-11-29T17:35:57.015Z,13.13
2018-11-29T17:38:26.728Z,11.27
2018-11-29T17:40:56.594Z,11.53
2018-11-29T17:43:26.709Z,10.77
2018-11-29T17:45:58.022Z,10.70
2018-11-29T17:48:27.411Z,10.37
2018-11-29T17:50:57.413Z,11.33
2018-11-29T17:53:26.856Z,12.70
2018-11-29T17:55:56.285Z,13.33
2018-11-29T17:58:25.891Z,10.83
2018-11-29T18:00:55.871Z,10.70
2018-11-29T18:03:25.331Z,11.57
2018-11-29T18:05:54.757Z,11.97
2018-11-29T18:08:24.354Z,11.70
2018-11-29T18:10:57.980Z,11.57
2018-11-29T18:13:32.723Z,13.43
2018-11-29T18:16:02.502Z,14.27
2018-11-29T18:18:31.933Z,10.63
2018-11-29T18:21:01.365Z,12.10
2018-11-29T18:23:30.748Z,10.47
2018-11-29T18:26:00.189Z,12.77
2018-11-29T18:28:29.645Z,11.00
2018-11-29T18:30:59.381Z,12.37
2018-11-29T18:33:29.063Z,10.30
2018-11-29T18:35:58.725Z,9.57
2018-11-29T18:38:28.615Z,11.77
2018-11-29T18:40:58.027Z,10.47
2018-11-29T18:43:27.485Z,9.23
2018-11-29T18:45:56.833Z,10.27
2018-11-29T18:48:26.279Z,8.80
2018-11-29T18:50:55.774Z,9.10
2018-11-29T18:53:29.528Z,9.17
2018-11-29T18:56:00.632Z,8.87
2018-11-29T18:58:29.396Z,9.03
2018-11-29T19:00:59.297Z,11.27
2018-11-29T19:03:29.447Z,9.50
2018-11-29T19:05:58.945Z,8.30
2018-11-29T19:08:28.573Z,8.70
2018-11-29T19:10:59.321Z,7.80
2018-11-29T19:13:29.161Z,8.30
2018-11-29T19:16:02.105Z,8.33
2018-11-29T19:18:32.024Z,6.80
2018-11-29T19:21:02.038Z,9.77
2018-11-29T19:23:31.711Z,9.30
2018-11-29T19:26:01.502Z,8.63
2018-11-29T19:28:31.461Z,8.20
2018-11-29T19:31:04.284Z,7.53
2018-11-29T19:33:31.587Z,9.03
2018-11-29T19:36:02.263Z,8.93
2018-11-29T19:38:32.392Z,8.73
2018-11-29T19:41:02.620Z,9.53
2018-11-29T19:43:35.807Z,9.83
2018-11-29T19:46:05.790Z,9.80
2018-11-29T19:48:37.219Z,8.87
2018-11-29T19:51:07.584Z,12.40
2018-11-29T19:53:37.782Z,10.30
2018-11-29T19:56:08.825Z,10.77
2018-11-29T19:58:38.798Z,8.90
2018-11-29T20:01:08.512Z,9.33
2018-11-29T20:03:41.829Z,8.87
2018-11-29T20:06:11.988Z,9.80
2018-11-29T20:08:41.596Z,12.07
2018-11-29T20:11:11.795Z,10.20
2018-11-29T20:13:41.367Z,10.60
2018-11-29T20:16:11.066Z,9.77
2018-11-29T20:18:41.443Z,9.23
2018-11-29T20:21:11.747Z,9.10
2018-11-29T20:23:41.119Z,9.97
2018-11-29T20:26:13.610Z,9.77
2018-11-29T20:28:41.239Z,8.93
2018-11-29T20:31:11.492Z,8.77
2018-11-29T20:33:41.825Z,9.07
2018-11-29T20:36:11.527Z,9.73
2018-11-29T20:38:43.512Z,9.00
2018-11-29T20:41:14.376Z,8.67
2018-11-29T20:43:44.144Z,8.37
2018-11-29T20:46:14.286Z,7.43
2018-11-29T20:48:45.372Z,10.30
2018-11-29T20:51:15.441Z,8.80
2018-11-29T20:53:48.351Z,8.47
2018-11-29T20:56:17.170Z,8.20
2018-11-29T20:58:51.564Z,7.47
2018-11-29T21:01:21.723Z,9.37
2018-11-29T21:03:52.623Z,8.83
2018-11-29T21:06:22.975Z,7.73
2018-11-29T21:08:52.504Z,7.13
2018-11-29T21:11:22.852Z,8.30
2018-11-29T21:13:53.423Z,8.40
2018-11-29T21:16:22.863Z,8.27
2018-11-29T21:18:53.199Z,8.60
2018-11-29T21:21:23.053Z,9.47
2018-11-29T21:23:53.491Z,9.43
2018-11-29T21:26:23.063Z,10.80
2018-11-29T21:28:53.010Z,7.17
2018-11-29T21:31:22.622Z,10.80
2018-11-29T21:33:52.849Z,9.30
2018-11-29T21:36:22.681Z,8.90
2018-11-29T21:38:52.373Z,9.53
2018-11-29T21:41:22.868Z,9.00
2018-11-29T21:43:55.781Z,10.23
2018-11-29T21:46:29.926Z,7.93
2018-11-29T21:49:02.604Z,9.67
2018-11-29T21:51:32.392Z,9.13
2018-11-29T21:54:02.159Z,10.57
2018-11-29T21:56:33.987Z,9.23
2018-11-29T21:59:04.178Z,8.43
2018-11-29T22:01:37.293Z,9.87
2018-11-29T22:04:06.990Z,8.33
2018-11-29T22:06:41.277Z,7.90
2018-11-29T22:09:11.352Z,7.87
2018-11-29T22:11:40.998Z,8.20
2018-11-29T22:14:11.011Z,10.30
2018-11-29T22:16:40.624Z,6.43
2018-11-29T22:19:11.009Z,7.63
2018-11-29T22:21:41.694Z,8.17
2018-11-29T22:24:11.641Z,8.67
2018-11-29T22:26:41.495Z,7.97
2018-11-29T22:29:11.905Z,6.07
2018-11-29T22:31:41.544Z,8.30
2018-11-29T22:34:11.534Z,7.43
2018-11-29T22:36:44.677Z,7.03
2018-11-29T22:39:12.196Z,7.93
2018-11-29T22:41:41.903Z,7.70
2018-11-29T22:44:11.866Z,7.30
2018-11-29T22:46:41.372Z,7.73
2018-11-29T22:49:10.909Z,9.37
2018-11-29T22:51:40.527Z,9.60
2018-11-29T22:54:10.312Z,7.73
2018-11-29T22:56:40.158Z,8.40
2018-11-29T22:59:09.739Z,8.90
2018-11-29T23:01:40.236Z,8.00
2018-11-29T23:04:09.676Z,9.40
2018-11-29T23:06:42.337Z,10.20
2018-11-29T23:09:12.077Z,8.50
2018-11-29T23:11:41.942Z,9.87
2018-11-29T23:14:11.649Z,9.60
2018-11-29T23:16:41.653Z,11.27
2018-11-29T23:19:11.184Z,9.20
2018-11-29T23:21:41.389Z,10.20
2018-11-29T23:24:10.890Z,9.10
2018-11-29T23:26:40.917Z,8.20
2018-11-29T23:29:10.815Z,9.70
2018-11-29T23:31:40.429Z,8.80
2018-11-29T23:34:10.437Z,8.67
2018-11-29T23:36:39.973Z,10.27
2018-11-29T23:39:09.717Z,10.27
2018-11-29T23:41:39.351Z,10.00
2018-11-29T23:44:09.322Z,11.67
2018-11-29T23:46:39.131Z,9.37
2018-11-29T23:49:09.637Z,9.40
2018-11-29T23:51:39.295Z,9.73
2018-11-29T23:54:09.699Z,8.50
2018-11-29T23:56:39.715Z,10.47
2018-11-29T23:59:09.181Z,9.77
